world map with GOOY marked

GOOY - Airport

This information may not be accurate or current and is not valid for navigation or flight planning. No warranty of fitness for any purpose is made or implied.

flag of Senegal

Donate via PayPal

Additional information is available on the NEW Great Circle Mapper

Location
City:  Dakar, Dakar, Senegal
Near (Alt.):Yoff
Name:Léopold Sédar Senghor International (Dakar Yoff International)
ICAO / IATA:GOOY / DKR

Details
Type:Airport (Aerodrome, Airfield)
Use:Public/Civil, Military
Latitude:14°44'23"N (14.739708)
Longitude:17°29'25"W (-17.490224)
Datum:WGS 1984
Elevation:85 ft (26 m)
Runways:2
Longest:11450 × 148 ft (3490 × 45 m)

Time
Timezone:UTC+0 (DST+2)
Local Time:

Weather
METAR:GOOY  281530Z 28008KT 9999 FEW008 30/24 Q1010 NOSIG
TAF:GOOY  281130Z 2812/2918 30012KT 9999 SCT012= TAF LIBD 281100Z 2812/2912 02012KT 9999 SCT030 TEMPO 2814/2818 SHRA BECMG 2817/2819 VRB05KT

Related Locations
Nearby:
Farthest:OLJ: 12178 mi / 19599 km
Olpoi [North West Santo], Espíritu Santo Island, SAM, VU

Find:

   beyond  
but within

Other Information
Maps:
Links:
Sources:

  

Airport Diagram

Airport diagram for GOOY

Airport diagram (OBSOLETE) from NGA

 


Great Circle Mapper   Great Circle Mapper
Great Circle Mapper FAQ   Great Circle Mapper FAQ
  Karl's Home Page
KLS²   KLS² Home
   GC on Facebook
Airlines of the World   Airlines of the World
Donate via PayPal


Copyright © 2004-2016, Karl L. Swartz. All rights reserved.
All trademarks mentioned herein belong to their respective owners.

Please see credits for attribution and copyright information.

Karl Swartz <karl@kls2.com>
  Powered by FreeBSD
Valid HTML 4.01!
Labeled with ICRA
hCard Microformat
Geo Microformat